sensor_id;sensor_type;location;lat;lon;timestamp;P1;durP1;ratioP1;P2;durP2;ratioP2
20721;SDS011;10522;52.198;9.890;2022-09-12T00:00:07;13.80;;;7.67;;
20721;SDS011;10522;52.198;9.890;2022-09-12T00:02:33;13.83;;;8.30;;
20721;SDS011;10522;52.198;9.890;2022-09-12T00:04:59;11.50;;;6.43;;
20721;SDS011;10522;52.198;9.890;2022-09-12T00:07:24;13.13;;;7.37;;
20721;SDS011;10522;52.198;9.890;2022-09-12T00:09:50;17.27;;;8.20;;
20721;SDS011;10522;52.198;9.890;2022-09-12T00:12:15;15.47;;;8.50;;
20721;SDS011;10522;52.198;9.890;2022-09-12T00:14:41;14.43;;;8.30;;
20721;SDS011;10522;52.198;9.890;2022-09-12T00:17:07;15.43;;;8.30;;
20721;SDS011;10522;52.198;9.890;2022-09-12T00:19:32;13.97;;;7.40;;
20721;SDS011;10522;52.198;9.890;2022-09-12T00:21:58;13.10;;;7.77;;
20721;SDS011;10522;52.198;9.890;2022-09-12T00:24:24;15.17;;;7.60;;
20721;SDS011;10522;52.198;9.890;2022-09-12T00:26:49;11.17;;;6.77;;
20721;SDS011;10522;52.198;9.890;2022-09-12T00:29:16;13.53;;;7.97;;
20721;SDS011;10522;52.198;9.890;2022-09-12T00:31:43;12.77;;;7.77;;
20721;SDS011;10522;52.198;9.890;2022-09-12T00:34:09;13.63;;;7.67;;
20721;SDS011;10522;52.198;9.890;2022-09-12T00:36:35;12.67;;;7.90;;
20721;SDS011;10522;52.198;9.890;2022-09-12T00:39:01;13.97;;;7.60;;
20721;SDS011;10522;52.198;9.890;2022-09-12T00:41:29;13.83;;;7.93;;
20721;SDS011;10522;52.198;9.890;2022-09-12T00:43:59;13.23;;;7.73;;
20721;SDS011;10522;52.198;9.890;2022-09-12T00:49:02;9.97;;;6.47;;
20721;SDS011;10522;52.198;9.890;2022-09-12T00:51:40;12.07;;;7.00;;
20721;SDS011;10522;52.198;9.890;2022-09-12T00:54:42;11.17;;;6.73;;
20721;SDS011;10522;52.198;9.890;2022-09-12T00:57:18;10.90;;;6.40;;
20721;SDS011;10522;52.198;9.890;2022-09-12T00:59:47;12.80;;;6.50;;
20721;SDS011;10522;52.198;9.890;2022-09-12T01:02:17;9.70;;;6.50;;
20721;SDS011;10522;52.198;9.890;2022-09-12T01:04:42;10.20;;;6.67;;
20721;SDS011;10522;52.198;9.890;2022-09-12T01:07:09;12.30;;;6.70;;
20721;SDS011;10522;52.198;9.890;2022-09-12T01:09:35;14.57;;;8.13;;
20721;SDS011;10522;52.198;9.890;2022-09-12T01:12:02;11.57;;;6.60;;
20721;SDS011;10522;52.198;9.890;2022-09-12T01:14:29;11.40;;;6.47;;
20721;SDS011;10522;52.198;9.890;2022-09-12T01:16:56;14.70;;;8.13;;
20721;SDS011;10522;52.198;9.890;2022-09-12T01:25:23;12.60;;;7.67;;
20721;SDS011;10522;52.198;9.890;2022-09-12T01:28:12;11.07;;;6.37;;
20721;SDS011;10522;52.198;9.890;2022-09-12T01:30:48;11.13;;;6.60;;
20721;SDS011;10522;52.198;9.890;2022-09-12T01:36:25;11.37;;;6.80;;
20721;SDS011;10522;52.198;9.890;2022-09-12T01:47:39;12.03;;;7.53;;
20721;SDS011;10522;52.198;9.890;2022-09-12T01:50:09;9.27;;;5.83;;
20721;SDS011;10522;52.198;9.890;2022-09-12T01:53:12;9.97;;;5.67;;
20721;SDS011;10522;52.198;9.890;2022-09-12T01:58:37;10.57;;;6.00;;
20721;SDS011;10522;52.198;9.890;2022-09-12T02:01:43;9.60;;;6.10;;
20721;SDS011;10522;52.198;9.890;2022-09-12T02:04:27;9.27;;;5.73;;
20721;SDS011;10522;52.198;9.890;2022-09-12T02:07:02;11.43;;;6.03;;
20721;SDS011;10522;52.198;9.890;2022-09-12T02:09:58;10.83;;;6.30;;
20721;SDS011;10522;52.198;9.890;2022-09-12T02:12:34;10.90;;;6.20;;
20721;SDS011;10522;52.198;9.890;2022-09-12T02:15:06;11.67;;;6.30;;
20721;SDS011;10522;52.198;9.890;2022-09-12T02:17:34;11.77;;;7.13;;
20721;SDS011;10522;52.198;9.890;2022-09-12T02:20:11;10.03;;;6.53;;
20721;SDS011;10522;52.198;9.890;2022-09-12T02:22:50;10.90;;;6.33;;
20721;SDS011;10522;52.198;9.890;2022-09-12T02:25:19;11.60;;;6.83;;
20721;SDS011;10522;52.198;9.890;2022-09-12T02:27:54;10.33;;;6.57;;
20721;SDS011;10522;52.198;9.890;2022-09-12T02:30:26;11.23;;;6.90;;
20721;SDS011;10522;52.198;9.890;2022-09-12T02:32:59;10.77;;;6.57;;
20721;SDS011;10522;52.198;9.890;2022-09-12T02:40:23;9.63;;;6.13;;
20721;SDS011;10522;52.198;9.890;2022-09-12T02:42:49;9.70;;;6.30;;
20721;SDS011;10522;52.198;9.890;2022-09-12T02:45:16;10.53;;;6.00;;
20721;SDS011;10522;52.198;9.890;2022-09-12T02:47:53;9.73;;;6.23;;
20721;SDS011;10522;52.198;9.890;2022-09-12T02:50:28;13.57;;;6.67;;
20721;SDS011;10522;52.198;9.890;2022-09-12T02:52:54;12.73;;;6.53;;
20721;SDS011;10522;52.198;9.890;2022-09-12T02:55:24;10.77;;;6.30;;
20721;SDS011;10522;52.198;9.890;2022-09-12T02:57:51;10.03;;;6.30;;
20721;SDS011;10522;52.198;9.890;2022-09-12T03:00:16;8.87;;;6.17;;
20721;SDS011;10522;52.198;9.890;2022-09-12T03:05:52;9.13;;;5.90;;
20721;SDS011;10522;52.198;9.890;2022-09-12T03:11:40;13.10;;;6.27;;
20721;SDS011;10522;52.198;9.890;2022-09-12T03:23:02;9.77;;;5.97;;
20721;SDS011;10522;52.198;9.890;2022-09-12T03:25:34;10.37;;;5.93;;
20721;SDS011;10522;52.198;9.890;2022-09-12T03:28:12;10.27;;;5.10;;
20721;SDS011;10522;52.198;9.890;2022-09-12T03:30:40;10.13;;;4.90;;
20721;SDS011;10522;52.198;9.890;2022-09-12T03:33:11;10.13;;;6.30;;
20721;SDS011;10522;52.198;9.890;2022-09-12T03:35:38;10.30;;;5.90;;
20721;SDS011;10522;52.198;9.890;2022-09-12T03:38:05;9.23;;;6.10;;
20721;SDS011;10522;52.198;9.890;2022-09-12T03:40:32;7.40;;;5.20;;
20721;SDS011;10522;52.198;9.890;2022-09-12T03:42:58;8.83;;;5.70;;
20721;SDS011;10522;52.198;9.890;2022-09-12T03:45:24;8.97;;;5.10;;
20721;SDS011;10522;52.198;9.890;2022-09-12T03:47:50;10.80;;;5.70;;
20721;SDS011;10522;52.198;9.890;2022-09-12T03:50:15;11.40;;;5.73;;
20721;SDS011;10522;52.198;9.890;2022-09-12T03:52:41;8.90;;;6.17;;
20721;SDS011;10522;52.198;9.890;2022-09-12T03:55:07;8.80;;;5.37;;
20721;SDS011;10522;52.198;9.890;2022-09-12T03:57:33;9.40;;;5.63;;
20721;SDS011;10522;52.198;9.890;2022-09-12T03:59:58;11.67;;;6.40;;
20721;SDS011;10522;52.198;9.890;2022-09-12T04:02:25;10.30;;;6.13;;
20721;SDS011;10522;52.198;9.890;2022-09-12T04:04:52;12.17;;;6.63;;
20721;SDS011;10522;52.198;9.890;2022-09-12T04:07:17;10.50;;;6.93;;
20721;SDS011;10522;52.198;9.890;2022-09-12T04:09:43;13.00;;;7.37;;
20721;SDS011;10522;52.198;9.890;2022-09-12T04:12:10;10.97;;;6.63;;
20721;SDS011;10522;52.198;9.890;2022-09-12T04:14:55;10.80;;;6.07;;
20721;SDS011;10522;52.198;9.890;2022-09-12T04:17:53;10.87;;;5.90;;
20721;SDS011;10522;52.198;9.890;2022-09-12T04:20:20;10.47;;;6.30;;
20721;SDS011;10522;52.198;9.890;2022-09-12T04:22:48;11.17;;;5.67;;
20721;SDS011;10522;52.198;9.890;2022-09-12T04:26:28;8.77;;;5.27;;
20721;SDS011;10522;52.198;9.890;2022-09-12T04:28:55;9.07;;;5.67;;
20721;SDS011;10522;52.198;9.890;2022-09-12T04:31:21;9.93;;;5.47;;
20721;SDS011;10522;52.198;9.890;2022-09-12T04:33:55;8.67;;;6.13;;
20721;SDS011;10522;52.198;9.890;2022-09-12T04:36:22;7.73;;;5.50;;
20721;SDS011;10522;52.198;9.890;2022-09-12T04:38:48;9.37;;;6.77;;
20721;SDS011;10522;52.198;9.890;2022-09-12T04:41:16;10.97;;;6.00;;
20721;SDS011;10522;52.198;9.890;2022-09-12T04:43:44;10.90;;;6.53;;
20721;SDS011;10522;52.198;9.890;2022-09-12T04:46:11;9.67;;;6.57;;
20721;SDS011;10522;52.198;9.890;2022-09-12T04:48:39;12.00;;;6.60;;
20721;SDS011;10522;52.198;9.890;2022-09-12T04:51:12;12.87;;;6.83;;
20721;SDS011;10522;52.198;9.890;2022-09-12T04:53:42;12.00;;;6.03;;
20721;SDS011;10522;52.198;9.890;2022-09-12T04:56:08;11.67;;;6.83;;
20721;SDS011;10522;52.198;9.890;2022-09-12T04:58:35;15.67;;;7.73;;
20721;SDS011;10522;52.198;9.890;2022-09-12T05:01:12;10.93;;;6.53;;
20721;SDS011;10522;52.198;9.890;2022-09-12T05:03:39;11.13;;;6.73;;
20721;SDS011;10522;52.198;9.890;2022-09-12T05:06:08;10.13;;;6.37;;
20721;SDS011;10522;52.198;9.890;2022-09-12T05:08:35;9.93;;;6.43;;
20721;SDS011;10522;52.198;9.890;2022-09-12T05:11:02;9.57;;;5.87;;
20721;SDS011;10522;52.198;9.890;2022-09-12T05:13:31;11.10;;;6.63;;
20721;SDS011;10522;52.198;9.890;2022-09-12T05:15:58;9.97;;;5.90;;
20721;SDS011;10522;52.198;9.890;2022-09-12T05:18:25;9.90;;;6.10;;
20721;SDS011;10522;52.198;9.890;2022-09-12T05:20:52;10.27;;;5.57;;
20721;SDS011;10522;52.198;9.890;2022-09-12T05:23:18;12.00;;;6.13;;
20721;SDS011;10522;52.198;9.890;2022-09-12T05:25:48;8.13;;;6.03;;
20721;SDS011;10522;52.198;9.890;2022-09-12T05:28:18;12.90;;;5.50;;
20721;SDS011;10522;52.198;9.890;2022-09-12T05:30:45;8.37;;;5.40;;
20721;SDS011;10522;52.198;9.890;2022-09-12T05:33:11;9.53;;;5.80;;
20721;SDS011;10522;52.198;9.890;2022-09-12T05:35:37;8.20;;;5.50;;
20721;SDS011;10522;52.198;9.890;2022-09-12T05:38:04;9.00;;;5.87;;
20721;SDS011;10522;52.198;9.890;2022-09-12T05:40:30;10.47;;;6.60;;
20721;SDS011;10522;52.198;9.890;2022-09-12T05:42:56;8.87;;;5.40;;
20721;SDS011;10522;52.198;9.890;2022-09-12T05:45:22;9.27;;;6.10;;
20721;SDS011;10522;52.198;9.890;2022-09-12T05:47:47;10.17;;;6.50;;
20721;SDS011;10522;52.198;9.890;2022-09-12T05:50:13;8.67;;;5.50;;
20721;SDS011;10522;52.198;9.890;2022-09-12T05:52:39;11.53;;;6.20;;
20721;SDS011;10522;52.198;9.890;2022-09-12T05:55:05;11.00;;;6.07;;
20721;SDS011;10522;52.198;9.890;2022-09-12T05:57:31;9.00;;;6.07;;
20721;SDS011;10522;52.198;9.890;2022-09-12T05:59:57;13.50;;;6.33;;
20721;SDS011;10522;52.198;9.890;2022-09-12T06:02:23;11.70;;;6.90;;
20721;SDS011;10522;52.198;9.890;2022-09-12T06:04:48;10.07;;;6.03;;
20721;SDS011;10522;52.198;9.890;2022-09-12T06:07:14;11.97;;;6.30;;
20721;SDS011;10522;52.198;9.890;2022-09-12T06:09:39;9.90;;;6.53;;
20721;SDS011;10522;52.198;9.890;2022-09-12T06:12:05;12.30;;;6.83;;
20721;SDS011;10522;52.198;9.890;2022-09-12T06:14:32;10.63;;;6.70;;
20721;SDS011;10522;52.198;9.890;2022-09-12T06:16:58;13.47;;;7.50;;
20721;SDS011;10522;52.198;9.890;2022-09-12T06:19:23;10.53;;;7.00;;
20721;SDS011;10522;52.198;9.890;2022-09-12T06:21:51;10.17;;;6.40;;
20721;SDS011;10522;52.198;9.890;2022-09-12T06:24:18;11.70;;;7.10;;
20721;SDS011;10522;52.198;9.890;2022-09-12T06:26:45;10.57;;;6.80;;
20721;SDS011;10522;52.198;9.890;2022-09-12T06:29:12;10.80;;;6.60;;
20721;SDS011;10522;52.198;9.890;2022-09-12T06:31:38;9.20;;;6.63;;
20721;SDS011;10522;52.198;9.890;2022-09-12T06:34:06;11.17;;;7.03;;
20721;SDS011;10522;52.198;9.890;2022-09-12T06:36:41;11.07;;;6.03;;
20721;SDS011;10522;52.198;9.890;2022-09-12T06:39:12;11.00;;;6.10;;
20721;SDS011;10522;52.198;9.890;2022-09-12T06:41:39;11.33;;;6.37;;
20721;SDS011;10522;52.198;9.890;2022-09-12T06:44:04;10.23;;;6.33;;
20721;SDS011;10522;52.198;9.890;2022-09-12T06:46:31;9.67;;;6.00;;
20721;SDS011;10522;52.198;9.890;2022-09-12T06:48:57;12.63;;;7.03;;
20721;SDS011;10522;52.198;9.890;2022-09-12T06:51:24;10.07;;;6.37;;
20721;SDS011;10522;52.198;9.890;2022-09-12T06:53:53;9.73;;;6.40;;
20721;SDS011;10522;52.198;9.890;2022-09-12T06:56:20;10.90;;;6.27;;
20721;SDS011;10522;52.198;9.890;2022-09-12T06:58:48;13.30;;;6.33;;
20721;SDS011;10522;52.198;9.890;2022-09-12T07:01:16;10.47;;;6.60;;
20721;SDS011;10522;52.198;9.890;2022-09-12T07:03:46;10.53;;;6.70;;
20721;SDS011;10522;52.198;9.890;2022-09-12T07:06:14;10.77;;;6.00;;
20721;SDS011;10522;52.198;9.890;2022-09-12T07:08:41;12.00;;;6.83;;
20721;SDS011;10522;52.198;9.890;2022-09-12T07:11:11;10.10;;;7.03;;
20721;SDS011;10522;52.198;9.890;2022-09-12T07:13:37;13.07;;;6.10;;
20721;SDS011;10522;52.198;9.890;2022-09-12T07:16:04;14.03;;;7.67;;
20721;SDS011;10522;52.198;9.890;2022-09-12T07:18:31;11.00;;;7.03;;
20721;SDS011;10522;52.198;9.890;2022-09-12T07:21:00;14.60;;;8.10;;
20721;SDS011;10522;52.198;9.890;2022-09-12T07:23:26;11.53;;;7.07;;
20721;SDS011;10522;52.198;9.890;2022-09-12T07:25:56;13.00;;;8.10;;
20721;SDS011;10522;52.198;9.890;2022-09-12T07:28:24;10.40;;;6.70;;
20721;SDS011;10522;52.198;9.890;2022-09-12T07:30:50;13.40;;;7.80;;
20721;SDS011;10522;52.198;9.890;2022-09-12T07:33:18;12.40;;;7.87;;
20721;SDS011;10522;52.198;9.890;2022-09-12T07:35:53;15.03;;;7.43;;
20721;SDS011;10522;52.198;9.890;2022-09-12T07:38:22;13.93;;;6.73;;
20721;SDS011;10522;52.198;9.890;2022-09-12T07:40:47;11.13;;;6.33;;
20721;SDS011;10522;52.198;9.890;2022-09-12T07:43:14;16.07;;;7.73;;
20721;SDS011;10522;52.198;9.890;2022-09-12T07:45:39;14.50;;;7.40;;
20721;SDS011;10522;52.198;9.890;2022-09-12T07:48:07;12.50;;;7.33;;
20721;SDS011;10522;52.198;9.890;2022-09-12T07:50:33;10.90;;;7.37;;
20721;SDS011;10522;52.198;9.890;2022-09-12T07:53:00;14.00;;;8.20;;
20721;SDS011;10522;52.198;9.890;2022-09-12T07:55:27;16.30;;;8.47;;
20721;SDS011;10522;52.198;9.890;2022-09-12T07:57:53;12.73;;;7.73;;
20721;SDS011;10522;52.198;9.890;2022-09-12T08:00:19;11.60;;;6.47;;
20721;SDS011;10522;52.198;9.890;2022-09-12T08:02:49;16.30;;;7.80;;
20721;SDS011;10522;52.198;9.890;2022-09-12T08:05:16;17.10;;;7.60;;
20721;SDS011;10522;52.198;9.890;2022-09-12T08:07:41;10.43;;;7.20;;
20721;SDS011;10522;52.198;9.890;2022-09-12T08:10:07;12.87;;;7.50;;
20721;SDS011;10522;52.198;9.890;2022-09-12T08:12:33;13.73;;;7.33;;
20721;SDS011;10522;52.198;9.890;2022-09-12T08:14:59;11.50;;;7.20;;
20721;SDS011;10522;52.198;9.890;2022-09-12T08:17:25;13.83;;;7.30;;
20721;SDS011;10522;52.198;9.890;2022-09-12T08:19:50;10.40;;;6.77;;
20721;SDS011;10522;52.198;9.890;2022-09-12T08:22:16;11.97;;;6.70;;
20721;SDS011;10522;52.198;9.890;2022-09-12T08:24:45;9.73;;;6.27;;
20721;SDS011;10522;52.198;9.890;2022-09-12T08:27:12;8.83;;;5.90;;
20721;SDS011;10522;52.198;9.890;2022-09-12T08:29:38;10.07;;;5.80;;
20721;SDS011;10522;52.198;9.890;2022-09-12T08:32:04;9.43;;;5.20;;
20721;SDS011;10522;52.198;9.890;2022-09-12T08:34:30;11.57;;;5.77;;
20721;SDS011;10522;52.198;9.890;2022-09-12T08:36:55;7.07;;;5.47;;
20721;SDS011;10522;52.198;9.890;2022-09-12T08:39:21;8.80;;;5.50;;
20721;SDS011;10522;52.198;9.890;2022-09-12T08:41:53;11.37;;;5.67;;
20721;SDS011;10522;52.198;9.890;2022-09-12T08:47:05;8.57;;;5.43;;
20721;SDS011;10522;52.198;9.890;2022-09-12T08:52:55;10.43;;;5.27;;
20721;SDS011;10522;52.198;9.890;2022-09-12T08:55:43;6.17;;;4.63;;
20721;SDS011;10522;52.198;9.890;2022-09-12T08:58:18;13.63;;;5.80;;
20721;SDS011;10522;52.198;9.890;2022-09-12T09:06:06;10.70;;;5.13;;
20721;SDS011;10522;52.198;9.890;2022-09-12T09:08:41;9.47;;;4.97;;
20721;SDS011;10522;52.198;9.890;2022-09-12T09:11:35;8.27;;;5.23;;
20721;SDS011;10522;52.198;9.890;2022-09-12T09:17:20;7.30;;;4.33;;
20721;SDS011;10522;52.198;9.890;2022-09-12T09:20:21;6.43;;;3.87;;
20721;SDS011;10522;52.198;9.890;2022-09-12T09:22:59;9.80;;;4.10;;
20721;SDS011;10522;52.198;9.890;2022-09-12T09:28:14;5.43;;;3.37;;
20721;SDS011;10522;52.198;9.890;2022-09-12T09:30:47;7.33;;;3.60;;
20721;SDS011;10522;52.198;9.890;2022-09-12T09:33:25;8.03;;;4.20;;
20721;SDS011;10522;52.198;9.890;2022-09-12T09:38:48;5.33;;;3.40;;
20721;SDS011;10522;52.198;9.890;2022-09-12T09:42:04;6.60;;;3.80;;
20721;SDS011;10522;52.198;9.890;2022-09-12T09:44:18;5.63;;;3.53;;
20721;SDS011;10522;52.198;9.890;2022-09-12T09:46:44;9.07;;;3.53;;
20721;SDS011;10522;52.198;9.890;2022-09-12T09:49:12;4.70;;;2.43;;
20721;SDS011;10522;52.198;9.890;2022-09-12T09:51:39;4.37;;;2.77;;
20721;SDS011;10522;52.198;9.890;2022-09-12T09:54:12;3.53;;;2.40;;
20721;SDS011;10522;52.198;9.890;2022-09-12T09:56:43;3.93;;;2.27;;
20721;SDS011;10522;52.198;9.890;2022-09-12T09:59:17;5.00;;;2.47;;
20721;SDS011;10522;52.198;9.890;2022-09-12T10:01:43;3.40;;;2.43;;
20721;SDS011;10522;52.198;9.890;2022-09-12T10:04:21;3.03;;;1.93;;
20721;SDS011;10522;52.198;9.890;2022-09-12T10:06:52;3.33;;;2.10;;
20721;SDS011;10522;52.198;9.890;2022-09-12T10:09:27;3.77;;;2.10;;
20721;SDS011;10522;52.198;9.890;2022-09-12T10:11:53;3.80;;;1.87;;
20721;SDS011;10522;52.198;9.890;2022-09-12T10:17:20;4.27;;;2.30;;
20721;SDS011;10522;52.198;9.890;2022-09-12T10:19:46;3.03;;;2.40;;
20721;SDS011;10522;52.198;9.890;2022-09-12T10:22:15;4.27;;;2.30;;
20721;SDS011;10522;52.198;9.890;2022-09-12T10:24:45;3.00;;;2.03;;
20721;SDS011;10522;52.198;9.890;2022-09-12T10:27:15;4.07;;;1.83;;
20721;SDS011;10522;52.198;9.890;2022-09-12T10:29:45;2.63;;;1.80;;
20721;SDS011;10522;52.198;9.890;2022-09-12T10:32:19;4.03;;;2.00;;
20721;SDS011;10522;52.198;9.890;2022-09-12T10:34:50;2.17;;;1.93;;
20721;SDS011;10522;52.198;9.890;2022-09-12T10:37:23;2.53;;;1.90;;
20721;SDS011;10522;52.198;9.890;2022-09-12T10:39:56;2.73;;;2.10;;
20721;SDS011;10522;52.198;9.890;2022-09-12T10:45:43;3.07;;;1.83;;
20721;SDS011;10522;52.198;9.890;2022-09-12T10:48:21;4.83;;;2.37;;
20721;SDS011;10522;52.198;9.890;2022-09-12T10:50:53;4.17;;;2.73;;
20721;SDS011;10522;52.198;9.890;2022-09-12T10:53:20;2.77;;;2.30;;
20721;SDS011;10522;52.198;9.890;2022-09-12T10:56:09;3.93;;;2.10;;
20721;SDS011;10522;52.198;9.890;2022-09-12T10:58:36;3.07;;;2.13;;
20721;SDS011;10522;52.198;9.890;2022-09-12T11:01:12;2.57;;;2.00;;
20721;SDS011;10522;52.198;9.890;2022-09-12T11:06:35;2.20;;;1.97;;
20721;SDS011;10522;52.198;9.890;2022-09-12T11:11:55;5.37;;;2.10;;
20721;SDS011;10522;52.198;9.890;2022-09-12T11:17:59;2.63;;;1.60;;
20721;SDS011;10522;52.198;9.890;2022-09-12T11:20:41;3.73;;;1.70;;
20721;SDS011;10522;52.198;9.890;2022-09-12T11:26:26;4.33;;;1.87;;
20721;SDS011;10522;52.198;9.890;2022-09-12T11:29:11;5.40;;;1.53;;
20721;SDS011;10522;52.198;9.890;2022-09-12T11:34:34;2.77;;;2.27;;
20721;SDS011;10522;52.198;9.890;2022-09-12T11:39:51;2.00;;;1.47;;
20721;SDS011;10522;52.198;9.890;2022-09-12T11:42:21;3.67;;;1.80;;
20721;SDS011;10522;52.198;9.890;2022-09-12T11:45:02;3.90;;;2.67;;
20721;SDS011;10522;52.198;9.890;2022-09-12T11:47:36;1.80;;;1.60;;
20721;SDS011;10522;52.198;9.890;2022-09-12T11:50:07;1.53;;;1.43;;
20721;SDS011;10522;52.198;9.890;2022-09-12T11:52:45;2.10;;;1.80;;
20721;SDS011;10522;52.198;9.890;2022-09-12T11:55:15;3.10;;;1.60;;
20721;SDS011;10522;52.198;9.890;2022-09-12T11:57:51;1.83;;;1.50;;
20721;SDS011;10522;52.198;9.890;2022-09-12T12:00:37;2.23;;;1.40;;
20721;SDS011;10522;52.198;9.890;2022-09-12T12:03:32;1.47;;;1.37;;
20721;SDS011;10522;52.198;9.890;2022-09-12T12:08:38;1.43;;;1.20;;
20721;SDS011;10522;52.198;9.890;2022-09-12T12:11:05;3.83;;;1.73;;
20721;SDS011;10522;52.198;9.890;2022-09-12T12:13:40;1.77;;;1.67;;
20721;SDS011;10522;52.198;9.890;2022-09-12T12:16:37;2.03;;;1.33;;
20721;SDS011;10522;52.198;9.890;2022-09-12T12:22:05;7.57;;;1.83;;
20721;SDS011;10522;52.198;9.890;2022-09-12T12:27:53;4.47;;;1.80;;
20721;SDS011;10522;52.198;9.890;2022-09-12T12:35:44;1.67;;;1.40;;
20721;SDS011;10522;52.198;9.890;2022-09-12T12:43:58;3.50;;;1.27;;
20721;SDS011;10522;52.198;9.890;2022-09-12T12:47:13;2.60;;;1.40;;
20721;SDS011;10522;52.198;9.890;2022-09-12T12:49:56;444.90;;;32.70;;
20721;SDS011;10522;52.198;9.890;2022-09-12T12:52:54;3.00;;;1.43;;
20721;SDS011;10522;52.198;9.890;2022-09-12T12:55:50;125.53;;;8.90;;
20721;SDS011;10522;52.198;9.890;2022-09-12T12:58:34;2.87;;;1.43;;
20721;SDS011;10522;52.198;9.890;2022-09-12T13:03:55;1.60;;;1.50;;
20721;SDS011;10522;52.198;9.890;2022-09-12T13:06:55;2.47;;;1.60;;
20721;SDS011;10522;52.198;9.890;2022-09-12T13:09:36;1.77;;;1.27;;
20721;SDS011;10522;52.198;9.890;2022-09-12T13:12:08;3.37;;;1.20;;
20721;SDS011;10522;52.198;9.890;2022-09-12T13:17:18;2.07;;;1.50;;
20721;SDS011;10522;52.198;9.890;2022-09-12T13:19:49;1.80;;;1.40;;
20721;SDS011;10522;52.198;9.890;2022-09-12T13:22:18;1.47;;;1.23;;
20721;SDS011;10522;52.198;9.890;2022-09-12T13:24:48;1.83;;;1.60;;
20721;SDS011;10522;52.198;9.890;2022-09-12T13:27:25;3.27;;;1.57;;
20721;SDS011;10522;52.198;9.890;2022-09-12T13:32:55;2.17;;;1.60;;
20721;SDS011;10522;52.198;9.890;2022-09-12T13:35:33;1.40;;;1.30;;
20721;SDS011;10522;52.198;9.890;2022-09-12T13:43:56;2.40;;;1.57;;
20721;SDS011;10522;52.198;9.890;2022-09-12T13:46:26;3.97;;;1.30;;
20721;SDS011;10522;52.198;9.890;2022-09-12T13:48:55;1.97;;;1.60;;
20721;SDS011;10522;52.198;9.890;2022-09-12T13:51:24;2.87;;;1.40;;
20721;SDS011;10522;52.198;9.890;2022-09-12T13:53:52;7.17;;;1.57;;
20721;SDS011;10522;52.198;9.890;2022-09-12T13:56:22;2.93;;;1.67;;
20721;SDS011;10522;52.198;9.890;2022-09-12T13:58:54;2.53;;;1.60;;
20721;SDS011;10522;52.198;9.890;2022-09-12T14:07:22;1.70;;;1.60;;
20721;SDS011;10522;52.198;9.890;2022-09-12T14:09:57;2.13;;;1.20;;
20721;SDS011;10522;52.198;9.890;2022-09-12T14:14:53;2.70;;;1.57;;
20721;SDS011;10522;52.198;9.890;2022-09-12T14:17:32;1.87;;;1.40;;
20721;SDS011;10522;52.198;9.890;2022-09-12T14:20:00;1.57;;;1.47;;
20721;SDS011;10522;52.198;9.890;2022-09-12T14:22:31;3.90;;;1.73;;
20721;SDS011;10522;52.198;9.890;2022-09-12T14:24:58;2.87;;;1.60;;
20721;SDS011;10522;52.198;9.890;2022-09-12T14:27:26;1.40;;;1.30;;
20721;SDS011;10522;52.198;9.890;2022-09-12T14:30:06;2.97;;;1.50;;
20721;SDS011;10522;52.198;9.890;2022-09-12T14:32:43;1.90;;;1.63;;
20721;SDS011;10522;52.198;9.890;2022-09-12T14:35:45;1.60;;;1.50;;
20721;SDS011;10522;52.198;9.890;2022-09-12T14:38:17;1.80;;;1.40;;
20721;SDS011;10522;52.198;9.890;2022-09-12T14:41:00;1.63;;;1.30;;
20721;SDS011;10522;52.198;9.890;2022-09-12T14:43:31;1.63;;;1.50;;
20721;SDS011;10522;52.198;9.890;2022-09-12T14:46:05;1.60;;;1.50;;
20721;SDS011;10522;52.198;9.890;2022-09-12T14:48:42;1.70;;;1.60;;
20721;SDS011;10522;52.198;9.890;2022-09-12T14:51:27;1.80;;;1.50;;
20721;SDS011;10522;52.198;9.890;2022-09-12T14:53:57;1.73;;;1.30;;
20721;SDS011;10522;52.198;9.890;2022-09-12T14:56:36;2.67;;;1.40;;
20721;SDS011;10522;52.198;9.890;2022-09-12T14:59:19;2.20;;;1.50;;
20721;SDS011;10522;52.198;9.890;2022-09-12T15:04:44;6.00;;;1.57;;
20721;SDS011;10522;52.198;9.890;2022-09-12T15:07:34;1.57;;;1.30;;
20721;SDS011;10522;52.198;9.890;2022-09-12T15:10:03;1.53;;;1.23;;
20721;SDS011;10522;52.198;9.890;2022-09-12T15:12:29;1.30;;;1.20;;
20721;SDS011;10522;52.198;9.890;2022-09-12T15:15:06;1.13;;;1.03;;
20721;SDS011;10522;52.198;9.890;2022-09-12T15:17:42;1.00;;;0.90;;
20721;SDS011;10522;52.198;9.890;2022-09-12T15:20:08;2.13;;;1.30;;
20721;SDS011;10522;52.198;9.890;2022-09-12T15:22:34;1.90;;;1.37;;
20721;SDS011;10522;52.198;9.890;2022-09-12T15:25:02;1.20;;;1.10;;
20721;SDS011;10522;52.198;9.890;2022-09-12T15:27:28;2.40;;;1.60;;
20721;SDS011;10522;52.198;9.890;2022-09-12T15:29:54;4.80;;;1.50;;
20721;SDS011;10522;52.198;9.890;2022-09-12T15:32:24;3.53;;;1.60;;
20721;SDS011;10522;52.198;9.890;2022-09-12T15:34:51;1.23;;;1.13;;
20721;SDS011;10522;52.198;9.890;2022-09-12T15:37:18;1.80;;;1.40;;
20721;SDS011;10522;52.198;9.890;2022-09-12T15:39:46;1.73;;;1.20;;
20721;SDS011;10522;52.198;9.890;2022-09-12T15:42:15;1.33;;;1.10;;
20721;SDS011;10522;52.198;9.890;2022-09-12T15:44:43;1.43;;;1.20;;
20721;SDS011;10522;52.198;9.890;2022-09-12T15:47:09;2.50;;;1.53;;
20721;SDS011;10522;52.198;9.890;2022-09-12T15:49:37;1.97;;;1.40;;
20721;SDS011;10522;52.198;9.890;2022-09-12T15:52:03;1.50;;;1.20;;
20721;SDS011;10522;52.198;9.890;2022-09-12T15:54:28;1.93;;;1.40;;
20721;SDS011;10522;52.198;9.890;2022-09-12T15:56:54;2.67;;;1.70;;
20721;SDS011;10522;52.198;9.890;2022-09-12T15:59:19;1.40;;;1.30;;
20721;SDS011;10522;52.198;9.890;2022-09-12T16:01:45;3.80;;;1.33;;
20721;SDS011;10522;52.198;9.890;2022-09-12T16:04:21;2.33;;;1.73;;
20721;SDS011;10522;52.198;9.890;2022-09-12T16:06:49;1.87;;;1.47;;
20721;SDS011;10522;52.198;9.890;2022-09-12T16:09:15;4.13;;;1.77;;
20721;SDS011;10522;52.198;9.890;2022-09-12T16:11:41;1.60;;;1.50;;
20721;SDS011;10522;52.198;9.890;2022-09-12T16:14:07;1.93;;;1.50;;
20721;SDS011;10522;52.198;9.890;2022-09-12T16:16:34;3.00;;;1.37;;
20721;SDS011;10522;52.198;9.890;2022-09-12T16:18:59;1.27;;;1.10;;
20721;SDS011;10522;52.198;9.890;2022-09-12T16:21:25;1.17;;;1.07;;
20721;SDS011;10522;52.198;9.890;2022-09-12T16:23:51;2.73;;;1.57;;
20721;SDS011;10522;52.198;9.890;2022-09-12T16:26:16;1.70;;;1.30;;
20721;SDS011;10522;52.198;9.890;2022-09-12T16:28:42;1.27;;;1.17;;
20721;SDS011;10522;52.198;9.890;2022-09-12T16:31:09;2.47;;;1.77;;
20721;SDS011;10522;52.198;9.890;2022-09-12T16:33:36;1.30;;;1.10;;
20721;SDS011;10522;52.198;9.890;2022-09-12T16:36:03;1.70;;;1.30;;
20721;SDS011;10522;52.198;9.890;2022-09-12T16:38:34;1.17;;;1.07;;
20721;SDS011;10522;52.198;9.890;2022-09-12T16:41:07;2.00;;;1.80;;
20721;SDS011;10522;52.198;9.890;2022-09-12T16:43:34;4.97;;;1.43;;
20721;SDS011;10522;52.198;9.890;2022-09-12T16:46:08;1.63;;;1.40;;
20721;SDS011;10522;52.198;9.890;2022-09-12T16:48:35;2.47;;;1.50;;
20721;SDS011;10522;52.198;9.890;2022-09-12T16:51:02;1.70;;;1.17;;
20721;SDS011;10522;52.198;9.890;2022-09-12T16:53:34;2.63;;;1.47;;
20721;SDS011;10522;52.198;9.890;2022-09-12T16:56:01;2.90;;;1.30;;
20721;SDS011;10522;52.198;9.890;2022-09-12T16:58:27;4.60;;;1.30;;
20721;SDS011;10522;52.198;9.890;2022-09-12T17:01:00;4.37;;;1.70;;
20721;SDS011;10522;52.198;9.890;2022-09-12T17:03:40;1.67;;;1.30;;
20721;SDS011;10522;52.198;9.890;2022-09-12T17:06:07;1.83;;;1.40;;
20721;SDS011;10522;52.198;9.890;2022-09-12T17:08:35;2.27;;;1.20;;
20721;SDS011;10522;52.198;9.890;2022-09-12T17:11:03;4.10;;;1.70;;
20721;SDS011;10522;52.198;9.890;2022-09-12T17:13:31;2.27;;;1.43;;
20721;SDS011;10522;52.198;9.890;2022-09-12T17:15:56;1.60;;;1.30;;
20721;SDS011;10522;52.198;9.890;2022-09-12T17:18:22;2.83;;;1.30;;